sensor_id;sensor_type;location;lat;lon;timestamp;pressure;altitude;pressure_sealevel;temperature;humidity
55550;BME280;41397;49.972;18.944;2022-12-07T00:00:50;101464.07;;;4.64;89.94
55550;BME280;41397;49.972;18.944;2022-12-07T00:03:53;101461.28;;;4.66;90.01
55550;BME280;41397;49.972;18.944;2022-12-07T00:07:01;101460.34;;;4.67;90.21
55550;BME280;41397;49.972;18.944;2022-12-07T00:10:06;101452.22;;;4.67;90.26
55550;BME280;41397;49.972;18.944;2022-12-07T00:13:07;101458.52;;;4.67;90.17
55550;BME280;41397;49.972;18.944;2022-12-07T00:16:11;101449.52;;;4.67;90.26
55550;BME280;41397;49.972;18.944;2022-12-07T00:19:13;101453.81;;;4.71;90.18
55550;BME280;41397;49.972;18.944;2022-12-07T00:22:14;101446.86;;;4.65;90.49
55550;BME280;41397;49.972;18.944;2022-12-07T00:25:16;101451.60;;;4.60;90.91
55550;BME280;41397;49.972;18.944;2022-12-07T00:28:17;101446.80;;;4.67;91.11
55550;BME280;41397;49.972;18.944;2022-12-07T00:31:21;101442.16;;;4.69;91.00
55550;BME280;41397;49.972;18.944;2022-12-07T00:34:23;101450.03;;;4.75;91.09
55550;BME280;41397;49.972;18.944;2022-12-07T00:37:24;101447.32;;;4.75;90.91
55550;BME280;41397;49.972;18.944;2022-12-07T00:40:25;101442.68;;;4.77;91.09
55550;BME280;41397;49.972;18.944;2022-12-07T00:43:27;101432.14;;;4.71;91.10
55550;BME280;41397;49.972;18.944;2022-12-07T00:46:29;101426.37;;;4.79;91.31
55550;BME280;41397;49.972;18.944;2022-12-07T00:49:30;101426.16;;;4.83;91.30
55550;BME280;41397;49.972;18.944;2022-12-07T00:52:31;101435.31;;;4.81;91.18
55550;BME280;41397;49.972;18.944;2022-12-07T00:55:33;101431.94;;;4.76;91.14
55550;BME280;41397;49.972;18.944;2022-12-07T00:58:35;101429.89;;;4.81;91.49
55550;BME280;41397;49.972;18.944;2022-12-07T01:01:36;101423.59;;;4.80;91.57
55550;BME280;41397;49.972;18.944;2022-12-07T01:04:38;101423.51;;;4.82;91.57
55550;BME280;41397;49.972;18.944;2022-12-07T01:07:39;101429.08;;;4.79;91.35
55550;BME280;41397;49.972;18.944;2022-12-07T01:10:40;101423.30;;;4.86;91.62
55550;BME280;41397;49.972;18.944;2022-12-07T01:13:42;101418.75;;;4.87;91.50
55550;BME280;41397;49.972;18.944;2022-12-07T01:16:43;101416.04;;;4.87;91.51
55550;BME280;41397;49.972;18.944;2022-12-07T01:19:45;101418.68;;;4.88;91.35
55550;BME280;41397;49.972;18.944;2022-12-07T01:22:46;101413.27;;;4.88;91.60
55550;BME280;41397;49.972;18.944;2022-12-07T01:25:56;101416.61;;;4.94;91.12
55550;BME280;41397;49.972;18.944;2022-12-07T01:28:57;101408.78;;;4.87;91.56
55550;BME280;41397;49.972;18.944;2022-12-07T01:32:01;101401.31;;;4.93;91.42
55550;BME280;41397;49.972;18.944;2022-12-07T01:35:02;101412.15;;;4.93;91.35
55550;BME280;41397;49.972;18.944;2022-12-07T01:38:04;101405.35;;;4.84;91.62
55550;BME280;41397;49.972;18.944;2022-12-07T01:41:06;101401.31;;;4.93;91.72
55550;BME280;41397;49.972;18.944;2022-12-07T01:44:18;101389.50;;;4.94;91.97
55550;BME280;41397;49.972;18.944;2022-12-07T01:47:19;101392.21;;;4.94;91.57
55550;BME280;41397;49.972;18.944;2022-12-07T01:50:22;101397.79;;;4.90;91.58
55550;BME280;41397;49.972;18.944;2022-12-07T01:53:27;101385.05;;;4.93;91.81
55550;BME280;41397;49.972;18.944;2022-12-07T01:56:31;101394.20;;;4.90;91.66
55550;BME280;41397;49.972;18.944;2022-12-07T01:59:33;101383.21;;;4.93;91.64
55550;BME280;41397;49.972;18.944;2022-12-07T02:02:41;101387.47;;;4.80;91.79
55550;BME280;41397;49.972;18.944;2022-12-07T02:05:46;101379.78;;;4.89;92.28
55550;BME280;41397;49.972;18.944;2022-12-07T02:08:49;101386.95;;;4.90;91.92
55550;BME280;41397;49.972;18.944;2022-12-07T02:11:50;101384.02;;;4.95;92.13
55550;BME280;41397;49.972;18.944;2022-12-07T02:14:53;101389.38;;;4.97;91.62
55550;BME280;41397;49.972;18.944;2022-12-07T02:24:34;101382.03;;;4.99;91.68
55550;BME280;41397;49.972;18.944;2022-12-07T02:30:55;101386.58;;;4.98;92.20
55550;BME280;41397;49.972;18.944;2022-12-07T02:37:18;101381.16;;;4.98;92.05
55550;BME280;41397;49.972;18.944;2022-12-07T02:43:47;101376.61;;;4.99;91.96
55550;BME280;41397;49.972;18.944;2022-12-07T02:46:55;101375.52;;;5.03;92.41
55550;BME280;41397;49.972;18.944;2022-12-07T02:49:58;101387.70;;;4.94;92.03
55550;BME280;41397;49.972;18.944;2022-12-07T02:53:00;101391.28;;;4.95;92.21
55550;BME280;41397;49.972;18.944;2022-12-07T03:05:59;101374.30;;;4.91;92.25
55550;BME280;41397;49.972;18.944;2022-12-07T03:09:17;101375.02;;;4.95;92.08
55550;BME280;41397;49.972;18.944;2022-12-07T03:12:31;101374.93;;;4.96;92.10
55550;BME280;41397;49.972;18.944;2022-12-07T03:18:54;101368.48;;;4.99;91.90
55550;BME280;41397;49.972;18.944;2022-12-07T03:22:01;101373.13;;;4.97;91.90
55550;BME280;41397;49.972;18.944;2022-12-07T03:25:10;101367.81;;;4.94;91.63
55550;BME280;41397;49.972;18.944;2022-12-07T03:28:16;101366.95;;;4.93;91.82
55550;BME280;41397;49.972;18.944;2022-12-07T03:31:35;101374.15;;;4.94;91.75
55550;BME280;41397;49.972;18.944;2022-12-07T03:34:52;101375.95;;;4.94;91.50
55550;BME280;41397;49.972;18.944;2022-12-07T03:41:30;101365.00;;;4.97;91.47
55550;BME280;41397;49.972;18.944;2022-12-07T03:44:33;101362.55;;;4.90;91.41
55550;BME280;41397;49.972;18.944;2022-12-07T03:47:47;101361.37;;;4.96;91.37
55550;BME280;41397;49.972;18.944;2022-12-07T03:51:02;101356.92;;;4.95;91.38
55550;BME280;41397;49.972;18.944;2022-12-07T03:54:15;101366.79;;;4.96;91.55
55550;BME280;41397;49.972;18.944;2022-12-07T03:57:19;101354.92;;;4.99;91.63
55550;BME280;41397;49.972;18.944;2022-12-07T04:00:23;101365.11;;;4.94;91.37
55550;BME280;41397;49.972;18.944;2022-12-07T04:03:26;101371.34;;;4.96;91.46
55550;BME280;41397;49.972;18.944;2022-12-07T04:06:28;101364.08;;;4.96;91.50
55550;BME280;41397;49.972;18.944;2022-12-07T04:09:29;101366.67;;;4.99;91.30
55550;BME280;41397;49.972;18.944;2022-12-07T04:12:30;101361.52;;;4.93;91.27
55550;BME280;41397;49.972;18.944;2022-12-07T04:15:34;101367.98;;;4.90;91.42
55550;BME280;41397;49.972;18.944;2022-12-07T04:18:36;101365.92;;;4.96;91.36
55550;BME280;41397;49.972;18.944;2022-12-07T04:21:37;101363.16;;;4.97;91.52
55550;BME280;41397;49.972;18.944;2022-12-07T04:24:39;101364.68;;;5.03;91.04
55550;BME280;41397;49.972;18.944;2022-12-07T04:27:42;101364.68;;;5.03;91.06
55550;BME280;41397;49.972;18.944;2022-12-07T04:30:45;101359.56;;;4.97;90.78
55550;BME280;41397;49.972;18.944;2022-12-07T04:33:46;101362.66;;;4.89;91.59
55550;BME280;41397;49.972;18.944;2022-12-07T04:36:48;101369.60;;;4.95;91.10
55550;BME280;41397;49.972;18.944;2022-12-07T04:39:51;101371.28;;;4.97;91.02
55550;BME280;41397;49.972;18.944;2022-12-07T04:42:52;101375.52;;;5.03;91.02
55550;BME280;41397;49.972;18.944;2022-12-07T04:45:53;101384.53;;;5.03;90.84
55550;BME280;41397;49.972;18.944;2022-12-07T04:48:55;101380.80;;;4.87;90.67
55550;BME280;41397;49.972;18.944;2022-12-07T04:51:59;101382.20;;;4.77;91.24
55550;BME280;41397;49.972;18.944;2022-12-07T04:55:00;101382.71;;;4.66;91.34
55550;BME280;41397;49.972;18.944;2022-12-07T04:58:01;101392.47;;;4.70;91.74
55550;BME280;41397;49.972;18.944;2022-12-07T05:01:03;101396.13;;;4.50;91.76
55550;BME280;41397;49.972;18.944;2022-12-07T05:04:08;101394.30;;;4.51;91.63
55550;BME280;41397;49.972;18.944;2022-12-07T05:07:09;101402.93;;;4.19;91.91
55550;BME280;41397;49.972;18.944;2022-12-07T05:10:11;101397.52;;;4.19;92.38
55550;BME280;41397;49.972;18.944;2022-12-07T05:13:12;101400.91;;;4.25;92.31
55550;BME280;41397;49.972;18.944;2022-12-07T05:16:15;101407.13;;;4.27;92.38
55550;BME280;41397;49.972;18.944;2022-12-07T05:19:17;101399.06;;;4.25;92.20
55550;BME280;41397;49.972;18.944;2022-12-07T05:22:19;101403.89;;;4.18;92.06
55550;BME280;41397;49.972;18.944;2022-12-07T05:25:20;101393.79;;;4.22;92.45
55550;BME280;41397;49.972;18.944;2022-12-07T05:28:23;101407.46;;;4.39;92.29
55550;BME280;41397;49.972;18.944;2022-12-07T05:31:25;101398.34;;;4.21;92.35
55550;BME280;41397;49.972;18.944;2022-12-07T05:34:26;101402.04;;;4.39;92.34
55550;BME280;41397;49.972;18.944;2022-12-07T05:37:28;101403.84;;;4.39;92.21
55550;BME280;41397;49.972;18.944;2022-12-07T05:40:31;101407.13;;;4.27;92.17
55550;BME280;41397;49.972;18.944;2022-12-07T05:43:33;101403.93;;;4.37;92.16
55550;BME280;41397;49.972;18.944;2022-12-07T05:46:34;101406.94;;;4.31;92.16
55550;BME280;41397;49.972;18.944;2022-12-07T05:49:36;101402.91;;;4.40;92.34
55550;BME280;41397;49.972;18.944;2022-12-07T05:52:39;101407.16;;;4.45;92.02
55550;BME280;41397;49.972;18.944;2022-12-07T05:55:40;101397.05;;;4.49;91.80
55550;BME280;41397;49.972;18.944;2022-12-07T05:58:42;101398.89;;;4.49;91.87
55550;BME280;41397;49.972;18.944;2022-12-07T06:02:01;101405.91;;;4.34;91.53
55550;BME280;41397;49.972;18.944;2022-12-07T06:05:03;101403.59;;;4.45;91.74
55550;BME280;41397;49.972;18.944;2022-12-07T06:08:06;101406.29;;;4.45;91.66
55550;BME280;41397;49.972;18.944;2022-12-07T06:11:07;101403.59;;;4.45;91.45
55550;BME280;41397;49.972;18.944;2022-12-07T06:14:20;101405.48;;;4.43;91.13
55550;BME280;41397;49.972;18.944;2022-12-07T06:17:22;101416.31;;;4.43;91.61
55550;BME280;41397;49.972;18.944;2022-12-07T06:20:23;101416.02;;;4.49;91.28
55550;BME280;41397;49.972;18.944;2022-12-07T06:23:24;101415.72;;;4.55;91.19
55550;BME280;41397;49.972;18.944;2022-12-07T06:26:25;101422.11;;;4.54;91.11
55550;BME280;41397;49.972;18.944;2022-12-07T06:29:27;101424.75;;;4.56;91.22
55550;BME280;41397;49.972;18.944;2022-12-07T06:32:28;101426.65;;;4.54;91.05
55550;BME280;41397;49.972;18.944;2022-12-07T06:35:29;101426.02;;;4.47;91.19
55550;BME280;41397;49.972;18.944;2022-12-07T06:38:30;101432.56;;;4.43;91.04
55550;BME280;41397;49.972;18.944;2022-12-07T06:41:32;101436.95;;;4.45;91.01
55550;BME280;41397;49.972;18.944;2022-12-07T06:44:33;101437.77;;;4.48;91.04
55550;BME280;41397;49.972;18.944;2022-12-07T06:47:34;101441.27;;;4.50;90.90
55550;BME280;41397;49.972;18.944;2022-12-07T06:50:35;101437.59;;;4.32;91.63
55550;BME280;41397;49.972;18.944;2022-12-07T06:53:37;101446.91;;;4.45;91.42
55550;BME280;41397;49.972;18.944;2022-12-07T06:56:40;101444.13;;;4.47;91.53
55550;BME280;41397;49.972;18.944;2022-12-07T06:59:42;101440.82;;;4.40;91.69
55550;BME280;41397;49.972;18.944;2022-12-07T07:02:44;101447.31;;;4.36;91.69
55550;BME280;41397;49.972;18.944;2022-12-07T07:05:45;101451.05;;;4.33;91.89
55550;BME280;41397;49.972;18.944;2022-12-07T07:08:48;101447.41;;;4.34;91.47
55550;BME280;41397;49.972;18.944;2022-12-07T07:11:49;101452.58;;;4.39;91.76
55550;BME280;41397;49.972;18.944;2022-12-07T07:14:51;101443.06;;;4.30;91.27
55550;BME280;41397;49.972;18.944;2022-12-07T07:17:52;101449.88;;;4.39;91.69
55550;BME280;41397;49.972;18.944;2022-12-07T07:20:56;101454.38;;;4.40;91.54
55550;BME280;41397;49.972;18.944;2022-12-07T07:23:58;101454.51;;;4.37;91.77
55550;BME280;41397;49.972;18.944;2022-12-07T07:26:59;101451.57;;;4.41;91.77
55550;BME280;41397;49.972;18.944;2022-12-07T07:30:00;101454.22;;;4.43;91.58
55550;BME280;41397;49.972;18.944;2022-12-07T07:33:05;101456.79;;;4.46;91.65
55550;BME280;41397;49.972;18.944;2022-12-07T07:36:06;101449.39;;;4.50;91.40
55550;BME280;41397;49.972;18.944;2022-12-07T07:39:10;101460.09;;;4.53;91.64
55550;BME280;41397;49.972;18.944;2022-12-07T07:42:13;101451.02;;;4.54;91.79
55550;BME280;41397;49.972;18.944;2022-12-07T07:45:15;101445.47;;;4.57;91.94
55550;BME280;41397;49.972;18.944;2022-12-07T07:48:16;101453.29;;;4.63;91.65
55550;BME280;41397;49.972;18.944;2022-12-07T07:51:18;101452.56;;;4.59;92.01
55550;BME280;41397;49.972;18.944;2022-12-07T07:54:19;101457.63;;;4.67;91.88
55550;BME280;41397;49.972;18.944;2022-12-07T07:57:20;101448.34;;;4.73;91.91
55550;BME280;41397;49.972;18.944;2022-12-07T08:00:22;101451.86;;;4.75;91.91
55550;BME280;41397;49.972;18.944;2022-12-07T08:03:24;101461.59;;;4.79;91.59
55550;BME280;41397;49.972;18.944;2022-12-07T08:06:25;101463.28;;;4.81;92.19
55550;BME280;41397;49.972;18.944;2022-12-07T08:09:29;101456.12;;;4.80;91.97
55550;BME280;41397;49.972;18.944;2022-12-07T08:12:30;101455.97;;;4.83;92.17
55550;BME280;41397;49.972;18.944;2022-12-07T08:15:31;101465.64;;;4.89;92.31
55550;BME280;41397;49.972;18.944;2022-12-07T08:18:36;101463.80;;;4.89;91.97
55550;BME280;41397;49.972;18.944;2022-12-07T08:21:38;101463.65;;;4.93;91.81
55550;BME280;41397;49.972;18.944;2022-12-07T08:24:39;101459.98;;;4.94;91.73
55550;BME280;41397;49.972;18.944;2022-12-07T08:27:41;101466.50;;;4.89;91.63
55550;BME280;41397;49.972;18.944;2022-12-07T08:30:42;101468.41;;;4.87;91.86
55550;BME280;41397;49.972;18.944;2022-12-07T08:33:46;101461.95;;;4.90;91.65
55550;BME280;41397;49.972;18.944;2022-12-07T08:36:47;101465.55;;;4.90;91.63
55550;BME280;41397;49.972;18.944;2022-12-07T08:39:48;101466.15;;;4.97;91.39
55550;BME280;41397;49.972;18.944;2022-12-07T08:42:50;101471.72;;;4.94;91.38
55550;BME280;41397;49.972;18.944;2022-12-07T08:49:27;101473.77;;;4.89;91.33
55550;BME280;41397;49.972;18.944;2022-12-07T08:52:31;101477.50;;;4.86;91.26
55550;BME280;41397;49.972;18.944;2022-12-07T08:55:33;101470.24;;;4.87;91.27
55550;BME280;41397;49.972;18.944;2022-12-07T08:58:36;101470.04;;;4.92;91.10
55550;BME280;41397;49.972;18.944;2022-12-07T09:01:38;101468.55;;;4.84;91.04
55550;BME280;41397;49.972;18.944;2022-12-07T09:04:40;101472.89;;;4.88;91.29
55550;BME280;41397;49.972;18.944;2022-12-07T09:07:43;101471.27;;;4.84;91.18
55550;BME280;41397;49.972;18.944;2022-12-07T09:10:45;101471.87;;;4.91;91.15
55550;BME280;41397;49.972;18.944;2022-12-07T09:13:48;101472.75;;;4.92;91.10
55550;BME280;41397;49.972;18.944;2022-12-07T09:16:49;101465.55;;;4.90;91.04
55550;BME280;41397;49.972;18.944;2022-12-07T09:19:51;101456.34;;;4.95;90.72
55550;BME280;41397;49.972;18.944;2022-12-07T09:22:52;101465.27;;;4.97;90.95
55550;BME280;41397;49.972;18.944;2022-12-07T09:25:53;101462.33;;;5.01;90.64
55550;BME280;41397;49.972;18.944;2022-12-07T09:28:54;101456.84;;;5.03;90.81
55550;BME280;41397;49.972;18.944;2022-12-07T09:31:56;101455.88;;;5.04;90.72
55550;BME280;41397;49.972;18.944;2022-12-07T09:34:57;101448.05;;;4.98;90.70
55550;BME280;41397;49.972;18.944;2022-12-07T09:37:58;101439.71;;;5.02;90.65
55550;BME280;41397;49.972;18.944;2022-12-07T09:41:06;101441.24;;;5.08;90.75
55550;BME280;41397;49.972;18.944;2022-12-07T09:44:25;101433.32;;;5.03;91.02
55550;BME280;41397;49.972;18.944;2022-12-07T09:47:22;101432.24;;;5.07;91.11
55550;BME280;41397;49.972;18.944;2022-12-07T09:50:27;101424.52;;;5.17;90.84
55550;BME280;41397;49.972;18.944;2022-12-07T09:53:35;101428.25;;;5.15;90.88
55550;BME280;41397;49.972;18.944;2022-12-07T09:56:37;101419.69;;;5.24;90.51
55550;BME280;41397;49.972;18.944;2022-12-07T09:59:39;101420.40;;;5.27;90.29
55550;BME280;41397;49.972;18.944;2022-12-07T10:02:44;101415.53;;;5.34;90.36
55550;BME280;41397;49.972;18.944;2022-12-07T10:05:50;101409.89;;;5.39;89.50
55550;BME280;41397;49.972;18.944;2022-12-07T10:08:52;101399.84;;;5.41;89.49
55550;BME280;41397;49.972;18.944;2022-12-07T10:12:04;101400.56;;;5.44;89.42
55550;BME280;41397;49.972;18.944;2022-12-07T10:15:06;101403.92;;;5.49;89.28
55550;BME280;41397;49.972;18.944;2022-12-07T10:21:26;101389.16;;;5.55;88.51
55550;BME280;41397;49.972;18.944;2022-12-07T10:24:27;101388.35;;;5.53;88.40
55550;BME280;41397;49.972;18.944;2022-12-07T10:27:32;101384.05;;;5.66;88.17
55550;BME280;41397;49.972;18.944;2022-12-07T10:33:54;101364.90;;;5.69;86.81
55550;BME280;41397;49.972;18.944;2022-12-07T10:43:23;101359.38;;;5.88;85.90
55550;BME280;41397;49.972;18.944;2022-12-07T10:49:51;101356.30;;;5.96;84.42
55550;BME280;41397;49.972;18.944;2022-12-07T10:53:01;101356.23;;;5.97;83.63
55550;BME280;41397;49.972;18.944;2022-12-07T11:05:56;101350.12;;;6.10;82.25
55550;BME280;41397;49.972;18.944;2022-12-07T11:18:55;101351.46;;;6.18;80.93
55550;BME280;41397;49.972;18.944;2022-12-07T11:22:09;101341.28;;;6.06;81.27
55550;BME280;41397;49.972;18.944;2022-12-07T11:41:54;101341.85;;;5.95;80.95
55550;BME280;41397;49.972;18.944;2022-12-07T11:45:07;101313.73;;;5.96;81.52
55550;BME280;41397;49.972;18.944;2022-12-07T11:48:33;101314.37;;;6.02;80.87
55550;BME280;41397;49.972;18.944;2022-12-07T11:51:23;101311.99;;;5.95;80.64
55550;BME280;41397;49.972;18.944;2022-12-07T11:54:32;101312.52;;;6.02;80.73
55550;BME280;41397;49.972;18.944;2022-12-07T11:57:44;101307.00;;;5.86;80.89
55550;BME280;41397;49.972;18.944;2022-12-07T12:00:49;101319.71;;;5.86;81.26
55550;BME280;41397;49.972;18.944;2022-12-07T12:03:58;101312.69;;;5.99;81.25
55550;BME280;41397;49.972;18.944;2022-12-07T12:07:05;101307.96;;;6.03;81.49
55550;BME280;41397;49.972;18.944;2022-12-07T12:10:18;101302.11;;;6.10;81.06
55550;BME280;41397;49.972;18.944;2022-12-07T12:16:42;101317.48;;;6.27;80.65
55550;BME280;41397;49.972;18.944;2022-12-07T12:23:01;101315.55;;;6.29;79.97
55550;BME280;41397;49.972;18.944;2022-12-07T12:26:12;101312.32;;;6.22;79.74
55550;BME280;41397;49.972;18.944;2022-12-07T12:29:21;101319.41;;;6.25;79.80
55550;BME280;41397;49.972;18.944;2022-12-07T12:35:42;101318.16;;;6.15;80.15
55550;BME280;41397;49.972;18.944;2022-12-07T12:41:57;101303.61;;;6.16;79.51
55550;BME280;41397;49.972;18.944;2022-12-07T12:48:29;101311.45;;;6.22;78.98
55550;BME280;41397;49.972;18.944;2022-12-07T12:51:37;101309.85;;;6.18;78.68
55550;BME280;41397;49.972;18.944;2022-12-07T13:04:26;101298.14;;;6.00;76.25
55550;BME280;41397;49.972;18.944;2022-12-07T13:10:46;101304.92;;;6.09;76.13
55550;BME280;41397;49.972;18.944;2022-12-07T13:13:50;101312.80;;;6.13;76.96
55550;BME280;41397;49.972;18.944;2022-12-07T13:16:51;101297.41;;;6.14;77.17
55550;BME280;41397;49.972;18.944;2022-12-07T13:19:54;101311.06;;;6.12;77.26
55550;BME280;41397;49.972;18.944;2022-12-07T13:22:58;101316.73;;;6.08;78.20
55550;BME280;41397;49.972;18.944;2022-12-07T13:29:19;101318.52;;;6.25;77.51
55550;BME280;41397;49.972;18.944;2022-12-07T13:32:28;101313.19;;;6.23;77.04
55550;BME280;41397;49.972;18.944;2022-12-07T13:35:37;101317.81;;;6.21;76.95
55550;BME280;41397;49.972;18.944;2022-12-07T13:38:38;101325.16;;;6.19;77.05
55550;BME280;41397;49.972;18.944;2022-12-07T13:41:42;101340.41;;;6.06;77.44
55550;BME280;41397;49.972;18.944;2022-12-07T13:44:44;101339.94;;;5.97;77.44
55550;BME280;41397;49.972;18.944;2022-12-07T13:47:54;101333.84;;;5.92;78.04
55550;BME280;41397;49.972;18.944;2022-12-07T13:50:57;101333.60;;;5.97;78.04
55550;BME280;41397;49.972;18.944;2022-12-07T13:57:13;101337.82;;;6.03;77.05
55550;BME280;41397;49.972;18.944;2022-12-07T14:00:21;101333.36;;;6.02;76.98
55550;BME280;41397;49.972;18.944;2022-12-07T14:03:30;101331.70;;;5.99;76.86
55550;BME280;41397;49.972;18.944;2022-12-07T14:06:32;101334.64;;;5.94;76.51
55550;BME280;41397;49.972;18.944;2022-12-07T14:09:33;101340.15;;;5.93;76.61
55550;BME280;41397;49.972;18.944;2022-12-07T14:12:36;101334.78;;;5.91;76.21
55550;BME280;41397;49.972;18.944;2022-12-07T14:15:38;101331.07;;;5.94;76.88
55550;BME280;41397;49.972;18.944;2022-12-07T14:18:40;101332.16;;;5.90;76.88
55550;BME280;41397;49.972;18.944;2022-12-07T14:21:41;101326.18;;;5.83;76.86
55550;BME280;41397;49.972;18.944;2022-12-07T14:24:43;101330.66;;;5.84;76.37
55550;BME280;41397;49.972;18.944;2022-12-07T14:27:53;101331.60;;;5.83;76.82
55550;BME280;41397;49.972;18.944;2022-12-07T14:30:57;101332.00;;;5.75;76.46
55550;BME280;41397;49.972;18.944;2022-12-07T14:33:59;101338.41;;;5.74;76.67
55550;BME280;41397;49.972;18.944;2022-12-07T14:37:01;101352.67;;;5.78;75.95
55550;BME280;41397;49.972;18.944;2022-12-07T14:40:02;101348.78;;;5.66;75.12
55550;BME280;41397;49.972;18.944;2022-12-07T14:43:10;101353.34;;;5.66;75.20
55550;BME280;41397;49.972;18.944;2022-12-07T14:46:13;101355.95;;;5.67;75.60
55550;BME280;41397;49.972;18.944;2022-12-07T14:49:14;101353.57;;;5.61;75.47
55550;BME280;41397;49.972;18.944;2022-12-07T14:52:28;101357.80;;;5.67;75.77
55550;BME280;41397;49.972;18.944;2022-12-07T14:55:31;101348.07;;;5.63;76.13
55550;BME280;41397;49.972;18.944;2022-12-07T14:58:33;101356.68;;;5.71;75.79
55550;BME280;41397;49.972;18.944;2022-12-07T15:01:34;101367.54;;;5.71;75.94
55550;BME280;41397;49.972;18.944;2022-12-07T15:04:35;101364.02;;;5.69;75.99
55550;BME280;41397;49.972;18.944;2022-12-07T15:07:37;101369.29;;;5.72;76.10
55550;BME280;41397;49.972;18.944;2022-12-07T15:10:38;101363.16;;;5.68;76.31
55550;BME280;41397;49.972;18.944;2022-12-07T15:13:41;101362.99;;;5.71;75.62
55550;BME280;41397;49.972;18.944;2022-12-07T15:16:54;101364.35;;;5.63;75.29
55550;BME280;41397;49.972;18.944;2022-12-07T15:19:55;101361.70;;;5.61;75.16
55550;BME280;41397;49.972;18.944;2022-12-07T15:22:57;101364.35;;;5.63;74.97
55550;BME280;41397;49.972;18.944;2022-12-07T15:25:58;101364.98;;;5.50;74.81
55550;BME280;41397;49.972;18.944;2022-12-07T15:29:00;101368.01;;;5.62;75.63
55550;BME280;41397;49.972;18.944;2022-12-07T15:32:03;101371.70;;;5.61;75.67
55550;BME280;41397;49.972;18.944;2022-12-07T15:35:05;101371.52;;;5.64;75.71
55550;BME280;41397;49.972;18.944;2022-12-07T15:38:06;101370.72;;;5.62;75.88
55550;BME280;41397;49.972;18.944;2022-12-07T15:41:08;101375.43;;;5.58;75.92
55550;BME280;41397;49.972;18.944;2022-12-07T15:44:14;101382.71;;;5.58;76.34
55550;BME280;41397;49.972;18.944;2022-12-07T15:47:37;101380.15;;;5.54;75.83
55550;BME280;41397;49.972;18.944;2022-12-07T15:50:39;101379.41;;;5.51;75.76
55550;BME280;41397;49.972;18.944;2022-12-07T15:53:40;101384.77;;;5.52;75.53
55550;BME280;41397;49.972;18.944;2022-12-07T15:56:42;101376.95;;;5.46;75.32
55550;BME280;41397;49.972;18.944;2022-12-07T15:59:43;101385.97;;;5.47;74.79
55550;BME280;41397;49.972;18.944;2022-12-07T16:02:44;101396.97;;;5.44;74.61
55550;BME280;41397;49.972;18.944;2022-12-07T16:05:50;101387.07;;;5.43;74.80
55550;BME280;41397;49.972;18.944;2022-12-07T16:08:51;101382.11;;;5.33;75.00
55550;BME280;41397;49.972;18.944;2022-12-07T16:11:54;101379.78;;;5.26;74.70
55550;BME280;41397;49.972;18.944;2022-12-07T16:14:55;101381.23;;;5.33;75.07
55550;BME280;41397;49.972;18.944;2022-12-07T16:17:56;101390.19;;;5.35;74.61
55550;BME280;41397;49.972;18.944;2022-12-07T16:20:57;101395.62;;;5.35;74.72
55550;BME280;41397;49.972;18.944;2022-12-07T16:23:59;101383.94;;;5.16;75.52
55550;BME280;41397;49.972;18.944;2022-12-07T16:27:00;101394.53;;;5.20;75.25
55550;BME280;41397;49.972;18.944;2022-12-07T16:30:01;101392.47;;;5.25;75.56
55550;BME280;41397;49.972;18.944;2022-12-07T16:33:03;101389.69;;;5.27;75.57
55550;BME280;41397;49.972;18.944;2022-12-07T16:36:07;101392.06;;;5.16;75.48
55550;BME280;41397;49.972;18.944;2022-12-07T16:39:09;101394.47;;;5.22;75.91
55550;BME280;41397;49.972;18.944;2022-12-07T16:42:10;101398.42;;;5.15;75.70
55550;BME280;41397;49.972;18.944;2022-12-07T16:45:12;101401.80;;;5.20;75.96
55550;BME280;41397;49.972;18.944;2022-12-07T16:48:15;101409.12;;;5.18;76.48
55550;BME280;41397;49.972;18.944;2022-12-07T16:51:17;101402.91;;;5.16;76.25
55550;BME280;41397;49.972;18.944;2022-12-07T16:54:18;101394.84;;;5.14;76.73
55550;BME280;41397;49.972;18.944;2022-12-07T16:57:20;101404.00;;;5.11;76.72
55550;BME280;41397;49.972;18.944;2022-12-07T17:00:21;101403.03;;;5.12;76.66
55550;BME280;41397;49.972;18.944;2022-12-07T17:03:22;101400.57;;;5.08;76.52
55550;BME280;41397;49.972;18.944;2022-12-07T17:06:26;101409.29;;;4.96;76.65
55550;BME280;41397;49.972;18.944;2022-12-07T17:09:28;101390.47;;;4.93;77.10
55550;BME280;41397;49.972;18.944;2022-12-07T17:12:30;101392.62;;;4.86;76.77
55550;BME280;41397;49.972;18.944;2022-12-07T17:15:31;101383.46;;;4.88;77.18
55550;BME280;41397;49.972;18.944;2022-12-07T17:18:34;101388.94;;;4.87;77.37
55550;BME280;41397;49.972;18.944;2022-12-07T17:21:36;101395.47;;;4.83;77.33
55550;BME280;41397;49.972;18.944;2022-12-07T17:24:38;101404.63;;;4.80;77.31
55550;BME280;41397;49.972;18.944;2022-12-07T17:27:40;101400.95;;;4.81;77.22
55550;BME280;41397;49.972;18.944;2022-12-07T17:30:41;101394.82;;;4.78;77.36
55550;BME280;41397;49.972;18.944;2022-12-07T17:33:43;101387.71;;;4.75;77.44
55550;BME280;41397;49.972;18.944;2022-12-07T17:36:44;101401.31;;;4.74;77.45
55550;BME280;41397;49.972;18.944;2022-12-07T17:39:48;101405.05;;;4.71;77.32
55550;BME280;41397;49.972;18.944;2022-12-07T17:42:50;101410.47;;;4.71;77.66
55550;BME280;41397;49.972;18.944;2022-12-07T17:45:51;101407.04;;;4.67;77.36
55550;BME280;41397;49.972;18.944;2022-12-07T17:48:56;101403.51;;;4.65;77.93
55550;BME280;41397;49.972;18.944;2022-12-07T17:51:58;101399.12;;;4.63;77.75
55550;BME280;41397;49.972;18.944;2022-12-07T17:55:11;101396.65;;;4.58;78.06
55550;BME280;41397;49.972;18.944;2022-12-07T17:58:12;101398.45;;;4.58;78.02
55550;BME280;41397;49.972;18.944;2022-12-07T18:01:14;101395.88;;;4.55;78.25
55550;BME280;41397;49.972;18.944;2022-12-07T18:04:15;101394.87;;;4.57;78.30